createdAt,value
2019-03-06T00:02:06.679Z,67.17
2019-03-06T00:04:37.533Z,66.87
2019-03-06T00:07:08.407Z,66.97
2019-03-06T00:09:39.062Z,66.87
2019-03-06T00:12:09.916Z,66.92
2019-03-06T00:14:40.857Z,67.24
2019-03-06T00:17:11.507Z,66.85
2019-03-06T00:19:42.384Z,67.25
2019-03-06T00:22:13.150Z,66.55
2019-03-06T00:24:43.890Z,66.35
2019-03-06T00:27:14.423Z,66.48
2019-03-06T00:29:45.295Z,66.49
2019-03-06T00:32:16.050Z,65.49
2019-03-06T00:34:46.802Z,65.61
2019-03-06T00:37:17.661Z,65.55
2019-03-06T00:39:50.049Z,65.65
2019-03-06T00:42:20.684Z,66.41
2019-03-06T00:44:50.661Z,67.11
2019-03-06T00:47:21.184Z,67.81
2019-03-06T00:49:51.944Z,68.01
2019-03-06T00:52:22.593Z,67.05
2019-03-06T00:54:53.457Z,66.84
2019-03-06T00:57:24.303Z,65.95
2019-03-06T00:59:54.961Z,65.29
2019-03-06T01:02:26.834Z,64.89
2019-03-06T01:04:57.693Z,64.87
2019-03-06T01:07:28.545Z,64.83
2019-03-06T01:09:59.403Z,65.04
2019-03-06T01:12:30.257Z,65.09
2019-03-06T01:15:01.120Z,65.31
2019-03-06T01:17:31.876Z,65.36
2019-03-06T01:20:02.525Z,65.29
2019-03-06T01:22:33.384Z,65.51
2019-03-06T01:25:05.260Z,65.84
2019-03-06T01:27:35.702Z,66.23
2019-03-06T01:30:09.529Z,66.87
2019-03-06T01:32:40.487Z,67.61
2019-03-06T01:35:18.504Z,67.89
2019-03-06T01:38:07.157Z,67.86
2019-03-06T01:40:39.546Z,66.47
2019-03-06T01:43:11.935Z,65.64
2019-03-06T01:45:42.589Z,65.42
2019-03-06T01:48:13.445Z,65.30
2019-03-06T01:50:44.299Z,65.47
2019-03-06T01:53:15.057Z,65.72
2019-03-06T01:55:45.703Z,65.69
2019-03-06T01:58:16.555Z,66.01
2019-03-06T02:00:47.315Z,66.02
2019-03-06T02:03:19.092Z,66.64
2019-03-06T02:05:49.847Z,67.56
2019-03-06T02:08:20.595Z,67.07
2019-03-06T02:10:51.654Z,67.25
2019-03-06T02:13:25.483Z,66.82
2019-03-06T02:15:56.131Z,67.44
2019-03-06T02:18:26.988Z,67.66
2019-03-06T02:20:57.943Z,67.71
2019-03-06T02:23:28.702Z,67.88
2019-03-06T02:25:59.554Z,68.27
2019-03-06T02:28:30.313Z,68.52
2019-03-06T02:31:01.067Z,68.39
2019-03-06T02:33:31.929Z,68.30
2019-03-06T02:36:02.790Z,68.38
2019-03-06T02:38:33.545Z,68.08
2019-03-06T02:41:04.177Z,67.47
2019-03-06T02:43:35.044Z,67.25
2019-03-06T02:46:05.805Z,67.50
2019-03-06T02:48:36.551Z,67.08
2019-03-06T02:51:09.106Z,66.29
2019-03-06T02:53:39.896Z,66.64
2019-03-06T02:56:10.643Z,65.14
2019-03-06T02:58:44.322Z,65.01
2019-03-06T03:01:32.707Z,64.89
2019-03-06T03:04:08.890Z,64.97
2019-03-06T03:06:44.147Z,64.12
2019-03-06T03:09:17.145Z,64.23
2019-03-06T03:11:47.700Z,64.13
2019-03-06T03:14:18.457Z,64.32
2019-03-06T03:16:49.102Z,64.08
2019-03-06T03:19:20.003Z,64.14
2019-03-06T03:21:50.814Z,65.45
2019-03-06T03:24:21.873Z,65.37
2019-03-06T03:26:52.736Z,65.58
2019-03-06T03:29:23.483Z,65.58
2019-03-06T03:31:53.462Z,65.58
2019-03-06T03:34:24.073Z,65.87
2019-03-06T03:36:54.723Z,65.99
2019-03-06T03:39:25.590Z,66.28
2019-03-06T03:41:56.438Z,66.29
2019-03-06T03:44:27.184Z,66.35
2019-03-06T03:46:57.835Z,66.12
2019-03-06T03:49:28.713Z,66.21
2019-03-06T03:51:59.445Z,66.68
2019-03-06T03:54:30.198Z,66.87
2019-03-06T03:57:01.073Z,66.85
2019-03-06T03:59:32.243Z,67.55
2019-03-06T04:02:02.970Z,67.25
2019-03-06T04:04:34.042Z,67.29
2019-03-06T04:07:04.787Z,67.31
2019-03-06T04:09:35.552Z,67.47
2019-03-06T04:12:06.434Z,67.63
2019-03-06T04:14:37.253Z,67.40
2019-03-06T04:17:07.909Z,66.91
2019-03-06T04:19:38.760Z,66.85
2019-03-06T04:22:09.719Z,66.75
2019-03-06T04:24:40.478Z,66.93
2019-03-06T04:27:11.328Z,66.87
2019-03-06T04:29:42.183Z,66.79
2019-03-06T04:32:12.820Z,66.77
2019-03-06T04:34:42.799Z,66.65
2019-03-06T04:37:13.307Z,66.72
2019-03-06T04:39:44.079Z,66.25
2019-03-06T04:42:14.914Z,66.39
2019-03-06T04:44:45.789Z,66.09
2019-03-06T04:47:16.238Z,66.39
2019-03-06T04:49:52.618Z,66.59
2019-03-06T04:52:19.278Z,66.46
2019-03-06T04:54:50.132Z,66.62
2019-03-06T04:57:20.886Z,66.70
2019-03-06T04:59:51.521Z,66.50
2019-03-06T05:02:22.377Z,66.43
2019-03-06T05:04:54.070Z,65.67
2019-03-06T05:07:25.028Z,65.31
2019-03-06T05:09:55.883Z,65.39
2019-03-06T05:12:26.739Z,65.09
2019-03-06T05:14:56.700Z,65.05
2019-03-06T05:17:40.811Z,64.87
2019-03-06T05:20:11.563Z,64.17
2019-03-06T05:22:42.421Z,63.94
2019-03-06T05:25:13.192Z,63.53
2019-03-06T05:27:43.846Z,63.50
2019-03-06T05:30:16.521Z,63.67
2019-03-06T05:32:49.935Z,63.47
2019-03-06T05:35:41.468Z,63.19
2019-03-06T05:38:15.253Z,62.92
2019-03-06T05:40:45.620Z,63.14
2019-03-06T05:43:16.393Z,62.48
2019-03-06T05:45:47.348Z,62.54
2019-03-06T05:48:18.205Z,62.33
2019-03-06T05:50:48.957Z,61.81
2019-03-06T05:53:19.610Z,61.48
2019-03-06T05:55:50.464Z,61.25
2019-03-06T05:58:21.222Z,60.93
2019-03-06T06:00:51.862Z,60.61
2019-03-06T06:03:21.832Z,60.07
2019-03-06T06:05:53.378Z,59.80
2019-03-06T06:08:24.012Z,59.70
2019-03-06T06:10:54.868Z,59.35
2019-03-06T06:13:25.621Z,59.15
2019-03-06T06:15:56.480Z,58.91
2019-03-06T06:18:27.279Z,58.70
2019-03-06T06:21:02.182Z,58.18
2019-03-06T06:23:49.520Z,58.01
2019-03-06T06:26:20.169Z,57.81
2019-03-06T06:28:50.907Z,57.63
2019-03-06T06:31:21.677Z,57.18
2019-03-06T06:33:52.314Z,57.00
2019-03-06T06:36:22.394Z,56.76
2019-03-06T06:38:52.800Z,56.95
2019-03-06T06:41:22.770Z,57.07
2019-03-06T06:43:53.282Z,56.85
2019-03-06T06:46:24.054Z,56.86
2019-03-06T06:48:54.687Z,55.73
2019-03-06T06:51:43.971Z,55.71
2019-03-06T06:54:20.695Z,55.22
2019-03-06T06:57:00.412Z,55.22
2019-03-06T06:59:40.150Z,55.20
2019-03-06T07:02:45.368Z,54.97
2019-03-06T07:05:32.812Z,54.47
2019-03-06T07:08:21.671Z,53.75
2019-03-06T07:10:56.700Z,53.28
2019-03-06T07:13:32.174Z,51.94
2019-03-06T07:16:20.930Z,52.31
2019-03-06T07:19:09.481Z,52.25
2019-03-06T07:21:50.768Z,51.54
2019-03-06T07:24:35.027Z,51.15
2019-03-06T07:27:10.380Z,50.44
2019-03-06T07:29:42.750Z,50.92
2019-03-06T07:32:24.141Z,50.88
2019-03-06T07:35:49.310Z,50.79
2019-03-06T07:38:20.487Z,50.22
2019-03-06T07:40:55.639Z,50.49
2019-03-06T07:43:37.130Z,50.67
2019-03-06T07:46:25.684Z,50.87
2019-03-06T07:49:13.411Z,50.70
2019-03-06T07:51:54.478Z,50.26
2019-03-06T07:54:29.546Z,48.51
2019-03-06T07:57:13.799Z,48.92
2019-03-06T07:59:44.860Z,48.24
2019-03-06T08:02:42.111Z,47.89
2019-03-06T08:05:12.546Z,47.69
2019-03-06T08:07:43.187Z,47.62
2019-03-06T08:10:17.517Z,47.60
2019-03-06T08:12:52.892Z,47.08
2019-03-06T08:15:40.319Z,45.43
2019-03-06T08:18:21.690Z,45.45
2019-03-06T08:21:02.981Z,45.60
2019-03-06T08:23:38.354Z,45.37
2019-03-06T08:26:09.093Z,45.22
2019-03-06T08:28:39.744Z,44.88
2019-03-06T08:31:15.319Z,44.55
2019-03-06T08:33:45.647Z,43.44
2019-03-06T08:36:16.418Z,43.86
2019-03-06T08:38:47.051Z,43.09
2019-03-06T08:41:17.029Z,42.81
2019-03-06T08:43:47.554Z,42.95
2019-03-06T08:46:19.841Z,42.74
2019-03-06T08:48:57.942Z,42.80
2019-03-06T08:51:33.501Z,42.39
2019-03-06T08:54:17.876Z,42.32
2019-03-06T08:57:05.181Z,42.13
2019-03-06T09:00:04.183Z,42.77
2019-03-06T09:02:41.463Z,42.83
2019-03-06T09:05:31.142Z,41.83
2019-03-06T09:08:03.550Z,42.12
2019-03-06T09:10:52.098Z,42.33
2019-03-06T09:13:24.282Z,42.36
2019-03-06T09:15:59.314Z,42.13
2019-03-06T09:18:31.719Z,41.64
2019-03-06T09:21:09.945Z,41.61
2019-03-06T09:23:58.801Z,41.46
2019-03-06T09:26:37.307Z,41.38
2019-03-06T09:29:09.613Z,41.52
2019-03-06T09:31:44.867Z,41.13
2019-03-06T09:34:28.229Z,40.68
2019-03-06T09:37:03.151Z,40.76
2019-03-06T09:39:51.594Z,40.31
2019-03-06T09:42:23.883Z,40.55
2019-03-06T09:44:56.160Z,39.53
2019-03-06T09:47:28.459Z,38.46
2019-03-06T09:50:00.848Z,38.19
2019-03-06T09:52:36.003Z,37.99
2019-03-06T09:55:10.753Z,38.22
2019-03-06T09:57:45.470Z,37.17
2019-03-06T10:00:17.874Z,36.70
2019-03-06T10:02:56.077Z,36.43
2019-03-06T10:05:31.025Z,36.17
2019-03-06T10:08:15.659Z,36.19
2019-03-06T10:10:57.568Z,35.16
2019-03-06T10:13:34.176Z,34.86
2019-03-06T10:16:24.789Z,34.98
2019-03-06T10:19:00.948Z,34.63
2019-03-06T10:21:31.715Z,35.16
2019-03-06T10:24:02.349Z,35.52
2019-03-06T10:26:33.016Z,34.51
2019-03-06T10:29:03.657Z,33.95
2019-03-06T10:31:34.530Z,34.41
2019-03-06T10:34:05.176Z,34.02
2019-03-06T10:36:36.250Z,33.46
2019-03-06T10:39:07.103Z,34.01
2019-03-06T10:41:37.935Z,32.84
2019-03-06T10:44:08.604Z,32.97
2019-03-06T10:46:39.443Z,33.30
2019-03-06T10:49:10.211Z,33.45
2019-03-06T10:51:41.074Z,32.94
2019-03-06T10:54:11.778Z,33.49
2019-03-06T10:56:43.397Z,32.72
2019-03-06T10:59:14.258Z,32.27
2019-03-06T11:01:45.109Z,32.88
2019-03-06T11:04:17.400Z,32.57
2019-03-06T11:06:48.154Z,32.54
2019-03-06T11:09:18.805Z,32.51
2019-03-06T11:11:50.684Z,32.22
2019-03-06T11:14:21.640Z,31.98
2019-03-06T11:16:52.485Z,32.40
2019-03-06T11:19:23.454Z,32.52
2019-03-06T11:21:54.295Z,34.08
2019-03-06T11:24:25.066Z,34.58
2019-03-06T11:26:55.851Z,34.10
2019-03-06T11:29:27.595Z,33.09
2019-03-06T11:31:58.249Z,32.34
2019-03-06T11:34:29.103Z,31.75
2019-03-06T11:36:59.885Z,31.67
2019-03-06T11:39:30.613Z,32.13
2019-03-06T11:42:01.449Z,31.90
2019-03-06T11:44:32.100Z,31.34
2019-03-06T11:47:02.874Z,30.38
2019-03-06T11:49:33.508Z,30.59
2019-03-06T11:52:04.365Z,30.36
2019-03-06T11:54:35.136Z,30.15
2019-03-06T11:57:05.891Z,29.92
2019-03-06T11:59:36.421Z,29.53
2019-03-06T12:02:07.296Z,29.57
2019-03-06T12:04:38.251Z,29.57
2019-03-06T12:07:09.010Z,29.02
2019-03-06T12:09:39.760Z,29.20
2019-03-06T12:12:11.555Z,29.41
2019-03-06T12:14:41.984Z,29.72
2019-03-06T12:17:12.842Z,29.77
2019-03-06T12:19:43.477Z,29.93
2019-03-06T12:22:14.131Z,30.03
2019-03-06T12:24:44.999Z,30.16
2019-03-06T12:27:15.758Z,30.47
2019-03-06T12:29:46.508Z,30.90
2019-03-06T12:32:17.161Z,30.39
2019-03-06T12:34:48.018Z,30.72
2019-03-06T12:37:18.770Z,31.25
2019-03-06T12:39:49.522Z,30.98
2019-03-06T12:42:20.377Z,31.17
2019-03-06T12:44:51.279Z,31.27
2019-03-06T12:47:22.093Z,31.26
2019-03-06T12:49:52.946Z,31.04
2019-03-06T12:52:23.785Z,30.87
2019-03-06T12:54:54.455Z,31.32
2019-03-06T12:57:25.111Z,31.08
2019-03-06T12:59:55.963Z,31.14
2019-03-06T13:02:26.716Z,31.49
2019-03-06T13:04:57.350Z,31.31
2019-03-06T13:07:28.224Z,31.37
2019-03-06T13:09:58.959Z,31.44
2019-03-06T13:12:29.939Z,31.33
2019-03-06T13:15:00.325Z,31.65
2019-03-06T13:17:31.240Z,31.74
2019-03-06T13:20:02.098Z,31.91
2019-03-06T13:22:32.951Z,32.37
2019-03-06T13:25:03.813Z,32.84
2019-03-06T13:27:34.463Z,32.96
2019-03-06T13:30:11.247Z,32.42
2019-03-06T13:32:43.211Z,32.64
2019-03-06T13:35:13.865Z,32.90
2019-03-06T13:37:44.536Z,33.63
2019-03-06T13:40:18.567Z,33.62
2019-03-06T13:42:47.777Z,33.84
2019-03-06T13:45:18.620Z,34.30
2019-03-06T13:47:51.058Z,34.82
2019-03-06T13:50:21.781Z,34.75
2019-03-06T13:52:52.229Z,34.98
2019-03-06T13:55:22.987Z,34.80
2019-03-06T13:57:53.842Z,34.88
2019-03-06T14:00:25.001Z,34.97
2019-03-06T14:02:55.448Z,35.22
2019-03-06T14:05:26.081Z,35.50
2019-03-06T14:07:57.070Z,36.04
2019-03-06T14:10:27.801Z,36.50
2019-03-06T14:12:59.794Z,36.50
2019-03-06T14:15:30.241Z,36.80
2019-03-06T14:18:01.094Z,37.54
2019-03-06T14:20:31.953Z,37.42
2019-03-06T14:23:02.705Z,37.49
2019-03-06T14:25:33.443Z,37.47
2019-03-06T14:28:04.317Z,37.47
2019-03-06T14:30:39.411Z,37.27
2019-03-06T14:33:09.917Z,37.49
2019-03-06T14:35:40.670Z,37.59
2019-03-06T14:38:11.305Z,37.77
2019-03-06T14:40:42.176Z,38.06
2019-03-06T14:43:12.826Z,38.46
2019-03-06T14:45:43.582Z,38.41
2019-03-06T14:48:14.234Z,38.83
2019-03-06T14:50:45.297Z,38.73
2019-03-06T14:53:16.049Z,38.71
2019-03-06T14:55:46.688Z,39.08
2019-03-06T14:58:17.557Z,38.96
2019-03-06T15:00:48.191Z,39.04
2019-03-06T15:03:19.253Z,39.16
2019-03-06T15:05:50.007Z,39.44
2019-03-06T15:08:20.879Z,39.53
2019-03-06T15:10:51.615Z,39.67
2019-03-06T15:13:21.685Z,40.25
2019-03-06T15:15:52.220Z,40.39
2019-03-06T15:18:22.975Z,40.58
2019-03-06T15:20:53.827Z,40.97
2019-03-06T15:23:24.585Z,41.34
2019-03-06T15:25:56.473Z,41.38
2019-03-06T15:28:27.221Z,41.81
2019-03-06T15:30:56.964Z,42.10
2019-03-06T15:33:27.480Z,41.96
2019-03-06T15:35:58.251Z,42.02
2019-03-06T15:38:28.904Z,41.85
2019-03-06T15:40:59.642Z,42.27
2019-03-06T15:43:30.513Z,42.58
2019-03-06T15:46:01.251Z,42.58
2019-03-06T15:48:32.004Z,43.12
2019-03-06T15:51:02.866Z,43.15
2019-03-06T15:53:33.839Z,43.10
2019-03-06T15:56:04.491Z,43.30
2019-03-06T15:58:35.343Z,43.62
2019-03-06T16:01:05.774Z,43.59
2019-03-06T16:03:36.543Z,43.71
2019-03-06T16:06:07.810Z,43.95
2019-03-06T16:08:38.137Z,43.90
2019-03-06T16:11:08.908Z,43.88
2019-03-06T16:13:39.871Z,44.15
2019-03-06T16:16:10.928Z,44.24
2019-03-06T16:18:41.768Z,44.25
2019-03-06T16:21:12.439Z,44.22
2019-03-06T16:23:43.298Z,44.18
2019-03-06T16:26:14.135Z,44.30
2019-03-06T16:28:44.903Z,44.48
2019-03-06T16:31:15.860Z,44.60
2019-03-06T16:33:46.717Z,44.36
2019-03-06T16:36:17.474Z,44.37
2019-03-06T16:38:48.121Z,44.33
2019-03-06T16:41:18.979Z,44.40
2019-03-06T16:43:49.612Z,44.23
2019-03-06T16:46:20.266Z,44.64
2019-03-06T16:48:50.445Z,44.68
2019-03-06T16:51:20.853Z,44.73
2019-03-06T16:53:50.820Z,44.98
2019-03-06T16:56:21.456Z,44.66
2019-03-06T16:58:52.212Z,44.95
2019-03-06T17:01:23.067Z,45.09
2019-03-06T17:03:53.806Z,45.20
2019-03-06T17:06:24.558Z,45.33
2019-03-06T17:08:55.227Z,45.27
2019-03-06T17:11:26.287Z,45.20
2019-03-06T17:13:57.960Z,45.35
2019-03-06T17:16:30.742Z,45.32
2019-03-06T17:19:01.722Z,45.38
2019-03-06T17:21:32.575Z,45.39
2019-03-06T17:24:03.330Z,45.46
2019-03-06T17:26:33.981Z,45.53
2019-03-06T17:29:10.322Z,45.48
2019-03-06T17:31:41.355Z,45.50
2019-03-06T17:34:11.767Z,45.49
2019-03-06T17:36:42.605Z,45.76
2019-03-06T17:39:13.777Z,45.94
2019-03-06T17:41:44.436Z,46.04
2019-03-06T17:44:15.294Z,46.31
2019-03-06T17:46:46.147Z,46.83
2019-03-06T17:49:16.800Z,46.66
2019-03-06T17:51:47.656Z,46.97
2019-03-06T17:54:18.102Z,47.32
2019-03-06T17:56:48.800Z,47.47
2019-03-06T17:59:19.614Z,47.25
2019-03-06T18:01:51.793Z,47.53
2019-03-06T18:04:22.330Z,47.64
2019-03-06T18:06:52.897Z,47.81
2019-03-06T18:09:23.630Z,48.05
2019-03-06T18:11:53.599Z,48.24
2019-03-06T18:14:25.377Z,48.52
2019-03-06T18:16:56.199Z,48.89
2019-03-06T18:19:27.057Z,49.11
2019-03-06T18:21:57.931Z,49.02
2019-03-06T18:24:28.686Z,49.04
2019-03-06T18:26:59.522Z,49.35
2019-03-06T18:29:30.397Z,49.50
2019-03-06T18:32:01.207Z,49.67
2019-03-06T18:34:33.544Z,49.97
2019-03-06T18:37:04.387Z,50.45
2019-03-06T18:39:35.135Z,51.21
2019-03-06T18:42:05.904Z,52.21
2019-03-06T18:44:36.556Z,52.79
2019-03-06T18:47:07.415Z,53.09
2019-03-06T18:49:38.049Z,53.46
2019-03-06T18:52:08.822Z,53.57
2019-03-06T18:54:39.471Z,54.49
2019-03-06T18:57:10.323Z,55.21
2019-03-06T18:59:41.080Z,56.01
2019-03-06T19:02:11.816Z,56.24
2019-03-06T19:04:42.485Z,56.22
2019-03-06T19:07:13.546Z,56.75
2019-03-06T19:09:44.303Z,57.24
2019-03-06T19:12:14.937Z,57.81
2019-03-06T19:14:46.731Z,58.09
2019-03-06T19:17:17.587Z,58.44
2019-03-06T19:19:48.853Z,59.07
2019-03-06T19:22:19.687Z,59.22
2019-03-06T19:24:50.563Z,59.19
2019-03-06T19:27:21.300Z,59.33
2019-03-06T19:29:51.970Z,59.04
2019-03-06T19:32:23.234Z,60.02
2019-03-06T19:34:53.867Z,60.45
2019-03-06T19:37:23.833Z,59.40
2019-03-06T19:39:54.371Z,59.06
2019-03-06T19:42:25.005Z,58.80
2019-03-06T19:44:55.081Z,59.49
2019-03-06T19:47:25.899Z,59.44
2019-03-06T19:49:58.470Z,59.77
2019-03-06T19:52:28.958Z,59.64
2019-03-06T19:54:59.794Z,59.78
2019-03-06T19:57:33.634Z,59.76
2019-03-06T20:00:07.233Z,59.83
2019-03-06T20:02:38.007Z,60.12
2019-03-06T20:05:08.844Z,60.76
2019-03-06T20:07:42.376Z,60.65
2019-03-06T20:10:13.033Z,60.44
2019-03-06T20:12:43.782Z,60.00
2019-03-06T20:15:17.592Z,59.50
2019-03-06T20:17:48.240Z,58.89
2019-03-06T20:20:19.733Z,58.53
2019-03-06T20:22:50.889Z,58.45
2019-03-06T20:25:23.484Z,58.19
2019-03-06T20:27:54.322Z,58.45
2019-03-06T20:30:27.223Z,58.54
2019-03-06T20:32:58.182Z,58.79
2019-03-06T20:35:28.853Z,59.28
2019-03-06T20:38:00.099Z,60.02
2019-03-06T20:40:32.403Z,60.39
2019-03-06T20:43:03.346Z,61.08
2019-03-06T20:45:34.512Z,61.50
2019-03-06T20:48:05.486Z,61.89
2019-03-06T20:50:36.323Z,62.04
2019-03-06T20:53:07.284Z,62.35
2019-03-06T20:55:38.260Z,62.61
2019-03-06T20:58:09.216Z,62.48
2019-03-06T21:00:40.057Z,62.60
2019-03-06T21:03:11.015Z,62.98
2019-03-06T21:05:41.989Z,63.16
2019-03-06T21:08:13.254Z,63.09
2019-03-06T21:10:44.211Z,63.44
2019-03-06T21:13:16.596Z,63.65
2019-03-06T21:15:48.975Z,63.90
2019-03-06T21:18:19.940Z,64.31
2019-03-06T21:20:51.115Z,64.87
2019-03-06T21:23:22.481Z,65.06
2019-03-06T21:25:53.319Z,65.39
2019-03-06T21:28:24.094Z,65.53
2019-03-06T21:30:54.725Z,65.70
2019-03-06T21:33:25.598Z,65.66
2019-03-06T21:35:59.199Z,65.83
2019-03-06T21:38:29.970Z,66.18
2019-03-06T21:41:00.623Z,66.46
2019-03-06T21:43:31.461Z,66.64
2019-03-06T21:46:01.463Z,66.35
2019-03-06T21:48:32.064Z,66.13
2019-03-06T21:51:02.920Z,65.75
2019-03-06T21:53:33.673Z,65.42
2019-03-06T21:56:04.329Z,65.17
2019-03-06T21:58:35.302Z,64.96
2019-03-06T22:01:06.141Z,64.82
2019-03-06T22:03:37.002Z,64.36
2019-03-06T22:06:07.856Z,64.31
2019-03-06T22:08:38.619Z,63.73
2019-03-06T22:11:09.257Z,63.87
2019-03-06T22:13:39.895Z,64.18
2019-03-06T22:16:11.996Z,64.06
2019-03-06T22:18:42.848Z,64.19
2019-03-06T22:21:13.707Z,64.37
2019-03-06T22:23:45.600Z,64.55
2019-03-06T22:26:16.133Z,65.19
2019-03-06T22:28:47.195Z,66.07
2019-03-06T22:31:17.951Z,66.73
2019-03-06T22:33:48.702Z,67.18
2019-03-06T22:36:19.338Z,67.22
2019-03-06T22:38:50.212Z,67.36
2019-03-06T22:41:20.845Z,67.72
2019-03-06T22:43:51.615Z,68.15
2019-03-06T22:46:22.266Z,68.69
2019-03-06T22:48:53.126Z,68.55
2019-03-06T22:51:25.481Z,68.44
2019-03-06T22:53:56.063Z,68.86
2019-03-06T22:56:26.714Z,69.41
2019-03-06T22:58:57.552Z,69.99
2019-03-06T23:01:28.510Z,70.23
2019-03-06T23:03:59.281Z,70.69
2019-03-06T23:06:30.140Z,70.93
2019-03-06T23:09:00.892Z,71.00
2019-03-06T23:11:31.525Z,71.00
2019-03-06T23:14:01.608Z,71.07
2019-03-06T23:16:33.256Z,71.57
2019-03-06T23:19:04.009Z,71.86
2019-03-06T23:21:34.765Z,72.47
2019-03-06T23:24:05.620Z,72.43
2019-03-06T23:26:42.544Z,72.23
2019-03-06T23:29:07.230Z,72.18
2019-03-06T23:31:38.069Z,72.30
2019-03-06T23:34:08.841Z,71.64
2019-03-06T23:36:39.478Z,70.63
2019-03-06T23:39:11.191Z,70.00
2019-03-06T23:41:41.715Z,69.55
2019-03-06T23:44:12.368Z,69.62
2019-03-06T23:46:43.103Z,69.77
2019-03-06T23:49:13.978Z,69.26
2019-03-06T23:51:46.264Z,68.83
2019-03-06T23:54:16.899Z,68.64
2019-03-06T23:56:48.472Z,69.64
2019-03-06T23:59:18.550Z,70.08
